createdAt,value
2022-12-15T00:02:19.250Z,45.57
2022-12-15T00:05:04.939Z,44.72
2022-12-15T00:07:50.314Z,44.82
2022-12-15T00:10:35.457Z,44.18
2022-12-15T00:13:20.793Z,44.74
2022-12-15T00:16:06.555Z,44.19
2022-12-15T00:18:52.472Z,44.12
2022-12-15T00:21:37.779Z,44.15
2022-12-15T00:24:23.043Z,44.46
2022-12-15T00:27:08.446Z,46.45
2022-12-15T00:29:54.210Z,46.47
2022-12-15T00:32:41.145Z,47.55
2022-12-15T00:35:27.706Z,47.58
2022-12-15T00:38:12.913Z,47.82
2022-12-15T00:40:39.511Z,47.46
2022-12-15T00:43:06.183Z,48.12
2022-12-15T00:45:51.263Z,48.00
2022-12-15T00:48:17.823Z,47.04
2022-12-15T00:50:53.813Z,46.50
2022-12-15T00:53:41.061Z,46.67
2022-12-15T00:56:27.224Z,46.74
2022-12-15T00:59:13.511Z,47.19
2022-12-15T01:01:59.134Z,46.19
2022-12-15T01:04:46.687Z,46.15
2022-12-15T01:07:32.491Z,45.80
2022-12-15T01:10:17.726Z,45.45
2022-12-15T01:13:03.958Z,45.05
2022-12-15T01:15:49.375Z,45.22
2022-12-15T01:18:35.224Z,45.08
2022-12-15T01:21:04.904Z,45.32
2022-12-15T01:23:33.118Z,44.84
2022-12-15T01:26:00.773Z,44.80
2022-12-15T01:28:27.575Z,45.02
2022-12-15T01:30:54.498Z,45.38
2022-12-15T01:33:22.103Z,45.26
2022-12-15T01:36:02.022Z,45.54
2022-12-15T01:38:28.792Z,45.69
2022-12-15T01:40:59.516Z,46.42
2022-12-15T01:43:30.063Z,46.57
2022-12-15T01:46:01.687Z,47.95
2022-12-15T01:48:47.148Z,48.25
2022-12-15T01:51:16.039Z,47.35
2022-12-15T01:54:06.373Z,46.93
2022-12-15T01:56:38.600Z,46.27
2022-12-15T01:59:09.236Z,45.70
2022-12-15T02:01:36.366Z,45.42
2022-12-15T02:04:03.615Z,45.53
2022-12-15T02:06:30.555Z,44.83
2022-12-15T02:08:59.435Z,45.07
2022-12-15T02:11:50.190Z,45.02
2022-12-15T02:14:27.115Z,44.95
2022-12-15T02:16:56.346Z,45.35
2022-12-15T02:19:43.555Z,45.71
2022-12-15T02:22:19.734Z,46.24
2022-12-15T02:25:08.772Z,46.89
2022-12-15T02:28:04.944Z,47.43
2022-12-15T02:31:12.633Z,46.76
2022-12-15T02:34:05.458Z,46.40
2022-12-15T02:36:47.806Z,46.01
2022-12-15T02:39:15.244Z,46.04
2022-12-15T02:41:44.473Z,46.71
2022-12-15T02:44:13.132Z,46.68
2022-12-15T02:46:45.325Z,46.32
2022-12-15T02:49:40.118Z,46.51
2022-12-15T02:52:30.741Z,47.09
2022-12-15T02:55:31.236Z,47.18
2022-12-15T02:58:07.025Z,46.59
2022-12-15T03:00:40.989Z,46.75
2022-12-15T03:03:08.260Z,46.54
2022-12-15T03:05:35.438Z,47.00
2022-12-15T03:08:02.424Z,46.94
2022-12-15T03:10:29.058Z,46.79
2022-12-15T03:12:55.672Z,46.56
2022-12-15T03:15:22.257Z,46.25
2022-12-15T03:17:48.874Z,46.26
2022-12-15T03:20:15.922Z,46.49
2022-12-15T03:22:42.656Z,46.21
2022-12-15T03:25:09.609Z,46.31
2022-12-15T03:27:36.740Z,46.85
2022-12-15T03:30:05.523Z,46.88
2022-12-15T03:32:32.251Z,46.50
2022-12-15T03:34:58.793Z,46.93
2022-12-15T03:37:25.414Z,47.01
2022-12-15T03:39:52.369Z,47.59
2022-12-15T03:42:39.123Z,47.53
2022-12-15T03:45:06.402Z,47.62
2022-12-15T03:47:32.945Z,47.24
2022-12-15T03:49:59.588Z,47.33
2022-12-15T03:52:26.185Z,47.95
2022-12-15T03:54:52.737Z,47.59
2022-12-15T03:57:19.335Z,47.44
2022-12-15T03:59:45.918Z,47.54
2022-12-15T04:02:12.608Z,46.68
2022-12-15T04:04:40.638Z,46.65
2022-12-15T04:07:07.231Z,46.86
2022-12-15T04:09:34.169Z,46.54
2022-12-15T04:12:03.187Z,46.39
2022-12-15T04:14:30.196Z,46.24
2022-12-15T04:16:57.347Z,46.10
2022-12-15T04:19:42.820Z,46.33
2022-12-15T04:22:12.556Z,46.21
2022-12-15T04:25:00.561Z,46.09
2022-12-15T04:27:45.785Z,46.20
2022-12-15T04:30:31.311Z,46.09
2022-12-15T04:33:17.914Z,46.02
2022-12-15T04:36:03.299Z,46.35
2022-12-15T04:38:50.045Z,46.62
2022-12-15T04:41:37.753Z,47.42
2022-12-15T04:44:23.911Z,47.26
2022-12-15T04:47:09.137Z,47.71
2022-12-15T04:49:54.546Z,47.19
2022-12-15T04:52:39.958Z,47.45
2022-12-15T04:55:25.272Z,47.52
2022-12-15T04:58:10.577Z,47.52
2022-12-15T05:00:56.028Z,47.38
2022-12-15T05:03:41.428Z,46.64
2022-12-15T05:06:26.816Z,46.35
2022-12-15T05:09:12.190Z,46.57
2022-12-15T05:11:57.911Z,46.15
2022-12-15T05:14:43.170Z,46.23
2022-12-15T05:17:28.738Z,45.67
2022-12-15T05:20:14.021Z,46.02
2022-12-15T05:22:59.500Z,45.72
2022-12-15T05:25:44.822Z,46.23
2022-12-15T05:28:30.128Z,45.94
2022-12-15T05:31:16.987Z,45.98
2022-12-15T05:33:43.741Z,45.68
2022-12-15T05:36:10.293Z,45.30
2022-12-15T05:38:36.835Z,44.97
2022-12-15T05:41:03.701Z,44.90
2022-12-15T05:43:30.645Z,44.97
2022-12-15T05:46:03.016Z,44.60
2022-12-15T05:48:29.860Z,44.48
2022-12-15T05:50:56.485Z,44.48
2022-12-15T05:53:23.027Z,44.66
2022-12-15T05:55:49.607Z,44.98
2022-12-15T05:58:16.127Z,45.39
2022-12-15T06:00:42.819Z,45.21
2022-12-15T06:03:09.405Z,44.82
2022-12-15T06:05:36.016Z,45.21
2022-12-15T06:08:03.008Z,45.07
2022-12-15T06:10:29.729Z,45.30
2022-12-15T06:12:56.572Z,45.15
2022-12-15T06:15:23.166Z,44.84
2022-12-15T06:17:49.906Z,45.62
2022-12-15T06:20:16.640Z,45.42
2022-12-15T06:22:48.132Z,45.28
2022-12-15T06:25:17.667Z,44.97
2022-12-15T06:27:44.267Z,44.96
2022-12-15T06:30:11.419Z,45.15
2022-12-15T06:32:37.947Z,45.22
2022-12-15T06:35:04.854Z,45.11
2022-12-15T06:37:31.419Z,45.10
2022-12-15T06:39:58.000Z,44.64
2022-12-15T06:42:24.524Z,44.67
2022-12-15T06:44:51.058Z,44.31
2022-12-15T06:47:17.606Z,44.65
2022-12-15T06:49:44.278Z,45.06
2022-12-15T06:52:10.835Z,45.32
2022-12-15T06:54:37.390Z,44.87
2022-12-15T06:57:03.965Z,44.95
2022-12-15T06:59:30.927Z,45.15
2022-12-15T07:01:57.956Z,45.06
2022-12-15T07:04:24.841Z,44.93
2022-12-15T07:06:51.811Z,45.41
2022-12-15T07:09:18.468Z,45.86
2022-12-15T07:11:46.422Z,46.00
2022-12-15T07:14:12.986Z,45.96
2022-12-15T07:16:39.652Z,45.87
2022-12-15T07:19:06.299Z,45.47
2022-12-15T07:21:32.993Z,45.21
2022-12-15T07:24:00.771Z,45.43
2022-12-15T07:26:28.205Z,45.11
2022-12-15T07:28:54.835Z,44.77
2022-12-15T07:31:22.304Z,44.70
2022-12-15T07:33:49.206Z,44.99
2022-12-15T07:36:16.136Z,44.96
2022-12-15T07:38:42.795Z,45.22
2022-12-15T07:41:10.005Z,45.21
2022-12-15T07:43:37.608Z,44.99
2022-12-15T07:46:05.444Z,44.85
2022-12-15T07:48:32.971Z,45.37
2022-12-15T07:51:11.016Z,45.30
2022-12-15T07:53:42.147Z,45.60
2022-12-15T07:56:10.146Z,45.49
2022-12-15T07:58:38.395Z,45.61
2022-12-15T08:01:07.378Z,46.44
2022-12-15T08:03:36.144Z,47.30
2022-12-15T08:06:05.339Z,48.61
2022-12-15T08:08:33.170Z,52.29
2022-12-15T08:11:04.806Z,52.25
2022-12-15T08:14:01.543Z,52.25
2022-12-15T08:16:18.902Z,52.51
2022-12-15T08:18:45.598Z,49.76
2022-12-15T08:21:12.189Z,49.26
2022-12-15T08:23:40.219Z,48.80
2022-12-15T08:26:10.748Z,47.90
2022-12-15T08:28:38.899Z,46.13
2022-12-15T08:31:07.604Z,44.07
2022-12-15T08:33:35.020Z,43.08
2022-12-15T08:36:05.443Z,43.20
2022-12-15T08:38:33.285Z,41.25
2022-12-15T08:41:11.194Z,40.61
2022-12-15T08:43:45.549Z,39.42
2022-12-15T08:46:15.879Z,39.08
2022-12-15T08:48:42.987Z,38.36
2022-12-15T08:51:10.266Z,39.16
2022-12-15T08:53:36.922Z,39.09
2022-12-15T08:56:09.927Z,37.63
2022-12-15T08:58:36.745Z,37.24
2022-12-15T09:01:09.685Z,37.39
2022-12-15T09:03:37.658Z,36.78
2022-12-15T09:06:06.688Z,36.66
2022-12-15T09:08:34.099Z,36.10
2022-12-15T09:11:01.902Z,36.65
2022-12-15T09:13:29.246Z,35.92
2022-12-15T09:16:11.498Z,36.25
2022-12-15T09:18:44.024Z,35.96
2022-12-15T09:21:11.682Z,36.19
2022-12-15T09:23:38.594Z,35.63
2022-12-15T09:26:07.739Z,36.18
2022-12-15T09:28:35.486Z,35.54
2022-12-15T09:31:06.362Z,35.73
2022-12-15T09:33:33.844Z,35.16
2022-12-15T09:36:00.916Z,35.24
2022-12-15T09:38:27.466Z,36.08
2022-12-15T09:40:54.160Z,35.19
2022-12-15T09:43:46.164Z,34.88
2022-12-15T09:46:24.007Z,34.03
2022-12-15T09:48:52.346Z,34.24
2022-12-15T09:51:19.412Z,34.08
2022-12-15T09:53:55.590Z,33.91
2022-12-15T09:56:39.142Z,32.96
2022-12-15T09:59:19.278Z,33.66
2022-12-15T10:01:51.939Z,33.70
2022-12-15T10:04:45.858Z,33.58
2022-12-15T10:07:34.697Z,33.57
2022-12-15T10:10:29.830Z,33.76
2022-12-15T10:13:02.463Z,34.54
2022-12-15T10:15:37.933Z,34.43
2022-12-15T10:18:13.475Z,35.80
2022-12-15T10:20:40.284Z,35.90
2022-12-15T10:23:16.242Z,35.03
2022-12-15T10:25:51.553Z,35.30
2022-12-15T10:28:36.922Z,35.02
2022-12-15T10:31:29.887Z,34.77
2022-12-15T10:34:20.347Z,35.06
2022-12-15T10:36:51.187Z,35.36
2022-12-15T10:39:20.773Z,35.45
2022-12-15T10:42:26.314Z,36.39
2022-12-15T10:44:57.275Z,36.96
2022-12-15T10:47:29.978Z,36.89
2022-12-15T10:50:22.468Z,39.42
2022-12-15T10:52:51.847Z,38.57
2022-12-15T10:55:41.911Z,39.02
2022-12-15T10:58:20.621Z,40.13
2022-12-15T11:00:50.951Z,40.63
2022-12-15T11:03:26.728Z,42.11
2022-12-15T11:05:56.142Z,42.67
2022-12-15T11:08:24.747Z,42.65
2022-12-15T11:11:16.098Z,43.36
2022-12-15T11:13:43.757Z,42.91
2022-12-15T11:16:18.558Z,43.10
2022-12-15T11:18:52.996Z,43.10
2022-12-15T11:21:30.307Z,43.78
2022-12-15T11:24:12.184Z,43.71
2022-12-15T11:26:54.931Z,46.54
2022-12-15T11:29:30.685Z,45.76
2022-12-15T11:32:03.063Z,45.21
2022-12-15T11:34:37.634Z,45.06
2022-12-15T11:37:43.116Z,45.77
2022-12-15T11:40:40.124Z,46.31
2022-12-15T11:43:50.351Z,47.06
2022-12-15T11:46:30.159Z,47.63
2022-12-15T11:49:22.907Z,48.48
2022-12-15T11:52:10.896Z,49.19
2022-12-15T11:54:53.081Z,49.94
2022-12-15T11:57:28.834Z,48.51
2022-12-15T12:00:18.073Z,47.98
2022-12-15T12:03:08.554Z,48.37
2022-12-15T12:05:44.397Z,47.97
2022-12-15T12:08:25.511Z,48.11
2022-12-15T12:11:15.039Z,47.83
2022-12-15T12:13:54.186Z,47.84
2022-12-15T12:16:44.031Z,46.82
2022-12-15T12:19:16.573Z,46.31
2022-12-15T12:21:46.885Z,45.97
2022-12-15T12:24:30.798Z,46.13
2022-12-15T12:27:10.333Z,45.39
2022-12-15T12:29:51.376Z,46.31
2022-12-15T12:32:45.179Z,46.15
2022-12-15T12:35:32.210Z,46.11
2022-12-15T12:38:04.107Z,45.69
2022-12-15T12:40:41.876Z,45.87
2022-12-15T12:43:14.017Z,46.20
2022-12-15T12:45:52.103Z,45.89
2022-12-15T12:48:29.639Z,46.48
2022-12-15T12:51:19.447Z,46.89
2022-12-15T12:53:46.070Z,46.68
2022-12-15T12:56:39.913Z,46.45
2022-12-15T12:59:29.202Z,46.25
2022-12-15T13:01:57.256Z,47.14
2022-12-15T13:04:29.899Z,46.70
2022-12-15T13:07:01.910Z,47.26
2022-12-15T13:09:39.656Z,47.12
2022-12-15T13:12:50.873Z,46.56
2022-12-15T13:15:27.209Z,46.15
2022-12-15T13:18:16.415Z,45.96
2022-12-15T13:20:45.310Z,45.11
2022-12-15T13:23:16.509Z,45.68
2022-12-15T13:25:48.590Z,45.48
2022-12-15T13:28:39.153Z,45.34
2022-12-15T13:31:18.596Z,45.70
2022-12-15T13:33:59.368Z,46.38
2022-12-15T13:36:38.191Z,46.45
2022-12-15T13:39:30.512Z,46.18
2022-12-15T13:44:58.137Z,46.54
2022-12-15T13:47:28.454Z,46.10
2022-12-15T13:50:15.618Z,45.80
2022-12-15T13:53:17.760Z,46.25
2022-12-15T13:55:46.548Z,46.84
2022-12-15T13:58:19.571Z,46.36
2022-12-15T14:00:54.011Z,46.22
2022-12-15T14:03:21.416Z,46.47
2022-12-15T14:05:52.047Z,46.37
2022-12-15T14:08:21.680Z,46.52
2022-12-15T14:10:53.666Z,46.02
2022-12-15T14:13:26.812Z,45.79
2022-12-15T14:15:55.533Z,45.09
2022-12-15T14:18:23.349Z,46.48
2022-12-15T14:20:50.246Z,45.94
2022-12-15T14:23:19.884Z,45.48
2022-12-15T14:26:06.651Z,44.94
2022-12-15T14:28:36.718Z,45.05
2022-12-15T14:31:12.674Z,45.50
2022-12-15T14:33:43.792Z,47.12
2022-12-15T14:36:12.565Z,46.47
2022-12-15T14:38:45.020Z,45.94
2022-12-15T14:41:22.381Z,46.65
2022-12-15T14:44:36.681Z,46.48
2022-12-15T14:46:37.373Z,47.77
2022-12-15T14:49:07.331Z,48.69
2022-12-15T14:51:44.298Z,47.80
2022-12-15T14:54:30.011Z,47.77
2022-12-15T14:57:16.063Z,48.14
2022-12-15T14:59:45.491Z,47.97
2022-12-15T15:02:23.177Z,47.36
2022-12-15T15:05:03.553Z,49.09
2022-12-15T15:07:32.679Z,48.41
2022-12-15T15:10:00.858Z,48.80
2022-12-15T15:12:48.759Z,48.86
2022-12-15T15:15:20.706Z,47.82
2022-12-15T15:17:53.842Z,47.35
2022-12-15T15:20:29.173Z,47.42
2022-12-15T15:23:08.189Z,47.69
2022-12-15T15:25:50.031Z,47.54
2022-12-15T15:28:19.566Z,47.45
2022-12-15T15:30:48.603Z,47.55
2022-12-15T15:33:16.441Z,48.11
2022-12-15T15:35:44.991Z,47.78
2022-12-15T15:38:18.836Z,48.21
2022-12-15T15:40:54.662Z,48.03
2022-12-15T15:43:23.050Z,48.13
2022-12-15T15:46:00.867Z,47.95
2022-12-15T15:48:32.699Z,48.17
2022-12-15T15:51:01.055Z,47.84
2022-12-15T15:53:31.651Z,47.39
2022-12-15T15:55:59.396Z,48.20
2022-12-15T15:58:26.284Z,47.86
2022-12-15T16:00:53.571Z,47.53
2022-12-15T16:03:20.426Z,47.47
2022-12-15T16:05:47.330Z,47.82
2022-12-15T16:08:17.954Z,47.52
2022-12-15T16:10:47.440Z,47.21
2022-12-15T16:13:20.796Z,47.64
2022-12-15T16:15:50.826Z,47.88
2022-12-15T16:18:17.789Z,47.67
2022-12-15T16:20:47.661Z,48.58
2022-12-15T16:23:27.187Z,48.87
2022-12-15T16:25:57.542Z,50.06
2022-12-15T16:28:28.463Z,49.20
2022-12-15T16:30:56.155Z,49.72
2022-12-15T16:33:22.750Z,50.89
2022-12-15T16:35:50.525Z,49.66
2022-12-15T16:38:26.069Z,49.08
2022-12-15T16:40:55.507Z,49.80
2022-12-15T16:43:32.904Z,48.91
2022-12-15T16:46:04.095Z,49.60
2022-12-15T16:48:31.049Z,50.81
2022-12-15T16:50:59.641Z,50.62
2022-12-15T16:53:31.851Z,50.63
2022-12-15T16:56:00.222Z,50.15
2022-12-15T16:58:28.687Z,49.18
2022-12-15T17:00:56.319Z,49.84
2022-12-15T17:03:26.655Z,49.58
2022-12-15T17:05:59.395Z,49.38
2022-12-15T17:08:33.276Z,49.74
2022-12-15T17:11:00.663Z,49.26
2022-12-15T17:13:40.612Z,49.19
2022-12-15T17:16:14.482Z,48.60
2022-12-15T17:18:42.739Z,48.90
2022-12-15T17:21:14.378Z,48.60
2022-12-15T17:23:44.601Z,48.58
2022-12-15T17:26:27.548Z,49.15
2022-12-15T17:28:58.984Z,48.79
2022-12-15T17:31:30.321Z,48.63
2022-12-15T17:34:05.279Z,48.57
2022-12-15T17:36:32.141Z,48.53
2022-12-15T17:39:00.976Z,48.54
2022-12-15T17:41:58.182Z,48.77
2022-12-15T17:44:40.766Z,48.75
2022-12-15T17:47:08.829Z,48.62
2022-12-15T17:49:38.576Z,48.55
2022-12-15T17:52:11.435Z,49.32
2022-12-15T17:54:38.085Z,49.43
2022-12-15T17:57:04.638Z,49.34
2022-12-15T17:59:32.196Z,49.25
2022-12-15T18:01:58.854Z,49.49
2022-12-15T18:04:25.516Z,49.47
2022-12-15T18:06:58.111Z,49.33
2022-12-15T18:09:51.172Z,48.61
2022-12-15T18:12:23.677Z,49.16
2022-12-15T18:14:50.662Z,50.16
2022-12-15T18:17:17.533Z,50.10
2022-12-15T18:19:45.002Z,50.29
2022-12-15T18:22:22.890Z,50.18
2022-12-15T18:24:51.646Z,50.27
2022-12-15T18:27:22.562Z,51.22
2022-12-15T18:29:50.376Z,51.43
2022-12-15T18:32:17.943Z,51.59
2022-12-15T18:34:45.376Z,51.39
2022-12-15T18:37:16.392Z,51.63
2022-12-15T18:39:43.789Z,51.76
2022-12-15T18:42:19.090Z,51.92
2022-12-15T18:44:47.887Z,51.60
2022-12-15T18:47:16.811Z,51.89
2022-12-15T18:49:43.715Z,52.21
2022-12-15T18:52:21.793Z,52.27
2022-12-15T18:54:49.650Z,52.72
2022-12-15T18:57:29.090Z,53.48
2022-12-15T19:00:07.804Z,53.38
2022-12-15T19:02:34.521Z,52.54
2022-12-15T19:05:01.290Z,52.60
2022-12-15T19:07:27.856Z,51.89
2022-12-15T19:09:55.106Z,51.60
2022-12-15T19:12:21.798Z,51.00
2022-12-15T19:14:50.903Z,50.30
2022-12-15T19:17:38.783Z,50.72
2022-12-15T19:20:35.319Z,50.48
2022-12-15T19:23:02.088Z,50.89
2022-12-15T19:25:29.672Z,52.39
2022-12-15T19:27:59.840Z,53.90
2022-12-15T19:30:41.753Z,54.06
2022-12-15T19:33:09.787Z,53.68
2022-12-15T19:35:37.646Z,54.19
2022-12-15T19:38:05.679Z,51.89
2022-12-15T19:40:36.474Z,52.02
2022-12-15T19:43:04.284Z,51.61
2022-12-15T19:45:32.343Z,52.29
2022-12-15T19:47:59.847Z,51.61
2022-12-15T19:50:35.966Z,51.57
2022-12-15T19:53:07.202Z,51.27
2022-12-15T19:55:36.354Z,50.65
2022-12-15T19:58:22.237Z,49.98
2022-12-15T20:00:54.568Z,50.04
2022-12-15T20:03:21.750Z,50.00
2022-12-15T20:05:50.841Z,49.84
2022-12-15T20:08:26.782Z,49.51
2022-12-15T20:10:55.310Z,48.83
2022-12-15T20:13:22.349Z,49.35
2022-12-15T20:15:49.296Z,48.47
2022-12-15T20:18:15.963Z,48.67
2022-12-15T20:20:45.597Z,48.34
2022-12-15T20:23:29.010Z,47.82
2022-12-15T20:25:56.712Z,47.80
2022-12-15T20:28:28.114Z,47.42
2022-12-15T20:30:56.501Z,47.66
2022-12-15T20:33:23.781Z,47.19
2022-12-15T20:35:51.301Z,47.39
2022-12-15T20:38:28.371Z,47.30
2022-12-15T20:40:55.947Z,46.86
2022-12-15T20:43:24.228Z,47.47
2022-12-15T20:46:05.304Z,47.00
2022-12-15T20:48:34.656Z,47.02
2022-12-15T20:51:07.412Z,46.78
2022-12-15T20:53:36.071Z,47.22
2022-12-15T20:56:03.149Z,47.17
2022-12-15T20:58:33.258Z,46.66
2022-12-15T21:01:00.349Z,47.19
2022-12-15T21:03:34.274Z,47.11
2022-12-15T21:06:01.778Z,47.04
2022-12-15T21:08:31.162Z,46.93
2022-12-15T21:11:07.367Z,47.16
2022-12-15T21:13:35.620Z,47.04
2022-12-15T21:16:02.606Z,46.67
2022-12-15T21:19:03.905Z,47.18
2022-12-15T21:21:31.051Z,48.13
2022-12-15T21:23:59.338Z,48.05
2022-12-15T21:26:26.382Z,48.88
2022-12-15T21:28:59.573Z,48.60
2022-12-15T21:31:26.553Z,48.21
2022-12-15T21:33:53.268Z,48.59
2022-12-15T21:36:21.867Z,48.37
2022-12-15T21:38:51.821Z,47.87
2022-12-15T21:41:21.968Z,47.61
2022-12-15T21:43:49.328Z,47.33
2022-12-15T21:46:20.569Z,47.67
2022-12-15T21:49:08.509Z,47.37
2022-12-15T21:51:37.879Z,50.58
2022-12-15T21:54:06.386Z,52.61
2022-12-15T21:56:32.939Z,52.96
2022-12-15T21:58:59.606Z,52.99
2022-12-15T22:01:30.876Z,52.84
2022-12-15T22:04:01.125Z,53.08
2022-12-15T22:06:29.721Z,51.61
2022-12-15T22:09:00.877Z,50.89
2022-12-15T22:11:30.041Z,51.51
2022-12-15T22:13:58.928Z,50.97
2022-12-15T22:16:25.763Z,52.47
2022-12-15T22:18:55.779Z,52.68
2022-12-15T22:21:24.789Z,52.33
2022-12-15T22:23:52.162Z,51.29
2022-12-15T22:26:28.647Z,50.21
2022-12-15T22:28:56.918Z,49.91
2022-12-15T22:31:23.468Z,49.52
2022-12-15T22:33:50.063Z,49.74
2022-12-15T22:36:17.558Z,49.71
2022-12-15T22:38:44.933Z,48.94
2022-12-15T22:41:20.649Z,49.53
2022-12-15T22:43:52.660Z,49.29
2022-12-15T22:46:22.445Z,49.48
2022-12-15T22:48:51.971Z,49.28
2022-12-15T22:51:19.507Z,49.99
2022-12-15T22:53:46.573Z,49.30
2022-12-15T22:56:25.867Z,48.81
2022-12-15T22:59:02.607Z,48.37
2022-12-15T23:01:30.173Z,48.44
2022-12-15T23:03:56.973Z,48.24
2022-12-15T23:06:23.999Z,48.57
2022-12-15T23:08:55.612Z,48.24
2022-12-15T23:11:38.748Z,47.49
2022-12-15T23:14:13.345Z,47.96
2022-12-15T23:16:40.453Z,47.23
2022-12-15T23:19:08.397Z,47.25
2022-12-15T23:21:35.836Z,47.56
2022-12-15T23:24:02.410Z,47.11
2022-12-15T23:26:29.218Z,47.01
2022-12-15T23:28:55.861Z,47.14
2022-12-15T23:31:23.036Z,46.63
2022-12-15T23:33:50.083Z,46.40
2022-12-15T23:36:18.868Z,46.66
2022-12-15T23:38:45.434Z,46.75
2022-12-15T23:41:15.885Z,46.68
2022-12-15T23:43:42.811Z,46.35
2022-12-15T23:46:09.968Z,46.19
2022-12-15T23:48:42.231Z,46.06
2022-12-15T23:51:17.729Z,46.04
2022-12-15T23:53:46.375Z,46.04
2022-12-15T23:56:16.331Z,45.81
2022-12-15T23:58:45.616Z,46.83
